Time;durP1;ratioP1;P1;durP2;ratioP2;P2;SDS_P1;SDS_P2;PMS_P1;PMS_P2;Temp;Humidity;BMP_temperature;BMP_pressure;BME280_temperature;BME280_humidity;BME280_pressure;Samples;Min_cycle;Max_cycle;Signal;HPM_P1;HPM_P2
2023/06/15 00:01:40;;;;;;;8.93;4.53;;;21.20;99.90;;;;;;5012530;28;20269;-67
2023/06/15 00:04:06;;;;;;;15.20;4.63;;;21.20;99.90;;;;;;5012347;28;20271;-66
2023/06/15 00:06:32;;;;;;;15.23;4.82;;;21.10;99.90;;;;;;5012531;28;20671;-66
2023/06/15 00:08:58;;;;;;;15.07;4.85;;;21.20;99.90;;;;;;5012575;28;20175;-66
2023/06/15 00:11:25;;;;;;;12.60;4.38;;;21.10;99.90;;;;;;5012480;28;20183;-66
2023/06/15 00:13:51;;;;;;;13.98;4.43;;;21.00;99.90;;;;;;5012456;28;20226;-64
2023/06/15 00:16:18;;;;;;;14.48;4.20;;;21.00;99.90;;;;;;5012308;28;20171;-65
2023/06/15 00:18:54;;;;;;;10.75;3.88;;;21.00;99.90;;;;;;4998893;28;20178;-66
2023/06/15 00:21:22;;;;;;;12.85;4.43;;;20.90;99.90;;;;;;5011535;28;20216;-66
2023/06/15 00:23:48;;;;;;;13.40;4.60;;;20.80;99.90;;;;;;5001801;28;20177;-66
2023/06/15 00:26:14;;;;;;;10.10;4.25;;;20.80;99.90;;;;;;4992355;28;20226;-65
2023/06/15 00:28:40;;;;;;;11.90;4.55;;;20.60;99.90;;;;;;4992446;28;20168;-66
2023/06/15 00:31:05;;;;;;;10.13;4.28;;;20.60;99.90;;;;;;4992318;28;20654;-66
2023/06/15 00:33:31;;;;;;;10.18;4.47;;;20.60;99.90;;;;;;4992383;28;20221;-66
2023/06/15 00:35:58;;;;;;;15.75;4.13;;;20.50;99.90;;;;;;4992404;28;20249;-66
2023/06/15 00:38:24;;;;;;;10.70;4.28;;;20.40;99.90;;;;;;5010121;28;20177;-66
2023/06/15 00:40:49;;;;;;;16.85;4.60;;;20.40;99.90;;;;;;5011868;28;20179;-66
2023/06/15 00:43:15;;;;;;;9.27;4.13;;;20.40;99.90;;;;;;5011850;28;20294;-67
2023/06/15 00:45:41;;;;;;;14.65;4.15;;;20.40;99.90;;;;;;5017195;28;20205;-65
2023/06/15 00:48:07;;;;;;;11.70;4.63;;;20.30;99.90;;;;;;5031720;28;20891;-66
2023/06/15 00:50:33;;;;;;;8.52;3.95;;;20.30;99.90;;;;;;5029559;28;20628;-66
2023/06/15 00:53:03;;;;;;;13.50;4.63;;;20.30;99.90;;;;;;5028912;28;20265;-66
2023/06/15 00:55:31;;;;;;;16.10;4.68;;;20.30;99.90;;;;;;5027254;28;20360;-66
2023/06/15 00:57:57;;;;;;;12.07;4.40;;;20.30;99.90;;;;;;5029581;28;20178;-66
2023/06/15 01:00:23;;;;;;;11.18;4.55;;;20.20;99.90;;;;;;5017361;28;20185;-66
2023/06/15 01:02:50;;;;;;;9.63;5.05;;;20.20;99.90;;;;;;5019652;28;20584;-66
2023/06/15 01:05:16;;;;;;;15.00;8.57;;;20.10;99.90;;;;;;5019967;28;20212;-66
2023/06/15 01:07:47;;;;;;;18.67;8.82;;;20.00;99.90;;;;;;5011534;28;20301;-68
2023/06/15 01:10:16;;;;;;;21.35;9.18;;;20.10;99.90;;;;;;5011465;28;20179;-65
2023/06/15 01:12:45;;;;;;;39.33;18.45;;;20.00;99.90;;;;;;5011342;28;20183;-64
2023/06/15 01:15:12;;;;;;;40.50;17.73;;;19.90;99.90;;;;;;5011492;28;20269;-65
2023/06/15 01:17:45;;;;;;;73.05;32.22;;;19.80;99.90;;;;;;5011603;28;20178;-65
2023/06/15 01:20:21;;;;;;;54.67;27.70;;;19.80;99.90;;;;;;5011355;28;20178;-68
2023/06/15 01:23:01;;;;;;;78.97;35.90;;;19.80;99.90;;;;;;5011325;28;20166;-67
2023/06/15 01:25:54;;;;;;;63.20;29.25;;;19.80;99.90;;;;;;5011110;28;20305;-67
2023/06/15 01:28:20;;;;;;;66.80;30.70;;;19.80;99.90;;;;;;5011110;28;20174;-66
2023/06/15 01:31:04;;;;;;;48.78;24.35;;;19.80;99.90;;;;;;5011195;28;20206;-66
2023/06/15 01:33:31;;;;;;;43.83;20.90;;;19.70;99.90;;;;;;5010893;28;20178;-67
2023/06/15 01:35:56;;;;;;;41.72;17.45;;;19.70;99.90;;;;;;5011044;28;20240;-65
2023/06/15 01:38:25;;;;;;;29.17;13.98;;;19.70;99.90;;;;;;5011109;28;20644;-66
2023/06/15 01:40:53;;;;;;;20.95;9.23;;;19.60;99.90;;;;;;5011091;28;20185;-66
2023/06/15 01:43:25;;;;;;;23.08;8.68;;;19.50;99.90;;;;;;5010990;28;20249;-65
2023/06/15 01:45:52;;;;;;;15.30;6.10;;;19.40;99.90;;;;;;5010986;28;20214;-65
2023/06/15 01:48:18;;;;;;;12.68;6.43;;;19.40;99.90;;;;;;5021890;28;20165;-66
2023/06/15 01:50:45;;;;;;;14.73;6.13;;;19.30;99.90;;;;;;5011329;28;20214;-66
2023/06/15 01:53:11;;;;;;;11.40;5.97;;;19.20;99.90;;;;;;5010950;28;20222;-65
2023/06/15 01:55:37;;;;;;;14.40;5.43;;;19.10;99.90;;;;;;5010889;28;20653;-65
2023/06/15 01:58:03;;;;;;;17.33;6.00;;;19.10;99.90;;;;;;5011394;28;20167;-66
2023/06/15 02:00:28;;;;;;;12.90;6.18;;;19.10;99.90;;;;;;5011010;28;20178;-65
2023/06/15 02:02:54;;;;;;;14.88;7.07;;;19.00;99.90;;;;;;5010808;28;20171;-66
2023/06/15 02:05:21;;;;;;;15.13;6.05;;;18.90;99.90;;;;;;5012055;28;20218;-66
2023/06/15 02:07:46;;;;;;;10.48;5.72;;;18.80;99.90;;;;;;5029867;28;20211;-65
2023/06/15 02:10:12;;;;;;;9.45;5.50;;;18.70;99.90;;;;;;5023404;28;20178;-64
2023/06/15 02:12:38;;;;;;;10.18;4.97;;;18.70;99.90;;;;;;5018640;28;20176;-61
2023/06/15 02:15:04;;;;;;;11.63;5.63;;;18.60;99.90;;;;;;5011830;28;20209;-66
2023/06/15 02:17:33;;;;;;;10.38;4.82;;;18.70;99.90;;;;;;5011354;28;20170;-66
2023/06/15 02:19:59;;;;;;;10.05;5.35;;;18.60;99.90;;;;;;5010819;28;20213;-66
2023/06/15 02:22:25;;;;;;;10.80;5.10;;;18.60;99.90;;;;;;5011102;28;20163;-66
2023/06/15 02:24:50;;;;;;;12.48;5.00;;;18.60;99.90;;;;;;5010888;28;20171;-66
2023/06/15 02:27:16;;;;;;;12.93;5.32;;;18.50;99.90;;;;;;4993171;28;20186;-66
2023/06/15 02:29:42;;;;;;;9.95;5.20;;;18.40;99.90;;;;;;5010745;28;20175;-66
2023/06/15 02:32:09;;;;;;;9.77;5.10;;;18.60;99.90;;;;;;4987661;28;20670;-66
2023/06/15 02:34:36;;;;;;;13.45;5.45;;;18.40;99.90;;;;;;4992696;28;20288;-66
2023/06/15 02:37:02;;;;;;;11.90;5.10;;;18.30;99.90;;;;;;5006682;28;20171;-67
2023/06/15 02:39:28;;;;;;;10.02;5.25;;;18.30;99.90;;;;;;4991287;28;20206;-66
2023/06/15 02:41:54;;;;;;;11.02;5.05;;;18.30;99.90;;;;;;4991236;28;20171;-66
2023/06/15 02:44:21;;;;;;;9.65;5.28;;;18.30;99.90;;;;;;4991766;28;20222;-66
2023/06/15 02:46:46;;;;;;;10.40;5.47;;;18.20;99.90;;;;;;5029891;28;20187;-66
2023/06/15 02:49:12;;;;;;;9.48;4.53;;;18.20;99.90;;;;;;5015073;28;20181;-65
2023/06/15 02:51:40;;;;;;;9.45;5.85;;;18.20;99.90;;;;;;5032826;28;20217;-65
2023/06/15 02:54:06;;;;;;;6.97;4.90;;;18.20;99.90;;;;;;5027655;28;20240;-65
2023/06/15 02:56:34;;;;;;;12.77;5.60;;;18.20;99.90;;;;;;5023480;28;20648;-67
2023/06/15 02:59:01;;;;;;;9.77;5.57;;;18.20;99.90;;;;;;5032722;28;20181;-67
2023/06/15 03:01:36;;;;;;;15.27;6.05;;;18.10;99.90;;;;;;5032234;28;20201;-67
2023/06/15 03:04:03;;;;;;;9.77;5.60;;;18.00;99.90;;;;;;5033512;28;20264;-68
2023/06/15 03:06:33;;;;;;;11.20;5.88;;;18.00;99.90;;;;;;5013127;28;20182;-68
2023/06/15 03:08:58;;;;;;;9.30;5.72;;;17.90;99.90;;;;;;5019688;28;20182;-68
2023/06/15 03:11:24;;;;;;;11.57;5.47;;;17.80;99.90;;;;;;5019965;28;20178;-66
2023/06/15 03:13:50;;;;;;;11.05;5.57;;;17.80;99.90;;;;;;5029085;28;20204;-66
2023/06/15 03:16:15;;;;;;;12.07;6.13;;;17.80;99.90;;;;;;5020430;28;20646;-67
2023/06/15 03:18:42;;;;;;;9.05;5.32;;;17.80;99.90;;;;;;5032614;28;20189;-67
2023/06/15 03:21:08;;;;;;;9.60;5.40;;;17.70;99.90;;;;;;5032462;28;20184;-68
2023/06/15 03:23:33;;;;;;;11.95;5.85;;;17.70;99.90;;;;;;5032458;28;20525;-67
2023/06/15 03:25:59;;;;;;;14.25;5.32;;;17.70;99.90;;;;;;5029693;28;20188;-66
2023/06/15 03:28:27;;;;;;;7.40;5.20;;;17.70;99.90;;;;;;5021345;28;20597;-66
2023/06/15 03:30:56;;;;;;;10.02;6.38;;;17.70;99.90;;;;;;5024439;28;20613;-67
2023/06/15 03:33:22;;;;;;;13.35;5.85;;;17.60;99.90;;;;;;5023636;28;20222;-67
2023/06/15 03:35:53;;;;;;;11.30;5.32;;;17.60;99.90;;;;;;5016152;28;20716;-66
2023/06/15 03:38:20;;;;;;;9.07;5.90;;;17.50;99.90;;;;;;5024699;28;20173;-66
2023/06/15 03:40:46;;;;;;;15.45;6.30;;;17.50;99.90;;;;;;5003204;28;20588;-67
2023/06/15 03:43:11;;;;;;;12.10;5.88;;;17.50;99.90;;;;;;5024514;28;20177;-67
2023/06/15 03:45:38;;;;;;;9.25;6.10;;;17.50;99.90;;;;;;5024438;28;20480;-66
2023/06/15 03:48:04;;;;;;;10.65;6.10;;;17.30;99.90;;;;;;5026704;28;20256;-63
2023/06/15 03:50:29;;;;;;;7.75;5.70;;;17.40;99.90;;;;;;5012827;28;20206;-64
2023/06/15 03:52:55;;;;;;;16.27;6.28;;;17.40;99.90;;;;;;5013294;28;20632;-65
2023/06/15 03:55:20;;;;;;;8.25;5.88;;;17.30;99.90;;;;;;5012561;28;20217;-65
2023/06/15 03:57:47;;;;;;;14.30;5.82;;;17.40;99.90;;;;;;5012770;28;20205;-66
2023/06/15 04:00:13;;;;;;;11.90;6.35;;;17.40;99.90;;;;;;5013058;28;20218;-66
2023/06/15 04:02:39;;;;;;;13.05;6.40;;;17.30;99.90;;;;;;5012601;28;20205;-65
2023/06/15 04:05:05;;;;;;;12.48;6.15;;;17.30;99.90;;;;;;5012536;28;20652;-65
2023/06/15 04:07:31;;;;;;;10.63;6.05;;;17.30;99.90;;;;;;5012669;28;20206;-66
2023/06/15 04:09:56;;;;;;;13.13;5.85;;;17.30;99.90;;;;;;5012429;28;20209;-67
2023/06/15 04:12:22;;;;;;;17.40;5.78;;;17.30;99.90;;;;;;5012760;28;20580;-66
2023/06/15 04:14:48;;;;;;;9.70;5.38;;;17.20;99.90;;;;;;5012459;28;20210;-65
2023/06/15 04:17:13;;;;;;;13.50;5.78;;;17.30;99.90;;;;;;5012419;28;20181;-64
2023/06/15 04:19:39;;;;;;;13.48;5.57;;;17.30;99.90;;;;;;5012262;28;20171;-68
2023/06/15 04:22:08;;;;;;;11.82;5.35;;;17.30;99.90;;;;;;5012406;28;20253;-71
2023/06/15 04:24:33;;;;;;;14.80;6.30;;;17.20;99.90;;;;;;5012319;28;20171;-67
2023/06/15 04:27:00;;;;;;;14.32;6.35;;;17.30;99.90;;;;;;5012193;28;20229;-68
2023/06/15 04:29:30;;;;;;;10.15;6.10;;;17.20;99.90;;;;;;5012370;28;20185;-67
2023/06/15 04:31:57;;;;;;;11.48;6.32;;;17.20;99.90;;;;;;5012110;28;20697;-67
2023/06/15 04:34:24;;;;;;;11.32;6.40;;;17.20;99.90;;;;;;5012177;28;20217;-66
2023/06/15 04:36:50;;;;;;;10.63;6.07;;;17.30;99.90;;;;;;5012158;28;20237;-67
2023/06/15 04:39:16;;;;;;;13.75;6.68;;;17.30;99.90;;;;;;4994460;28;20178;-68
2023/06/15 04:41:42;;;;;;;9.20;6.60;;;17.30;99.90;;;;;;5012367;28;20699;-68
2023/06/15 04:44:08;;;;;;;14.02;6.28;;;17.30;99.90;;;;;;5011979;28;20182;-67
2023/06/15 04:46:38;;;;;;;12.02;7.10;;;17.40;99.90;;;;;;5011960;28;20166;-66
2023/06/15 04:49:03;;;;;;;11.90;6.43;;;17.50;99.90;;;;;;5013031;28;20204;-66
2023/06/15 04:51:30;;;;;;;11.40;6.43;;;17.50;99.90;;;;;;5012503;28;20228;-65
2023/06/15 04:53:56;;;;;;;14.43;7.28;;;17.50;99.90;;;;;;5015832;28;20650;-65
2023/06/15 04:56:22;;;;;;;17.48;7.30;;;17.60;99.90;;;;;;5029738;28;20316;-66
2023/06/15 04:58:48;;;;;;;10.95;7.10;;;17.60;99.90;;;;;;5019177;28;20174;-66
2023/06/15 05:01:14;;;;;;;17.35;7.72;;;17.70;99.90;;;;;;5016405;28;20269;-66
2023/06/15 05:03:40;;;;;;;17.15;8.10;;;17.70;99.90;;;;;;5029052;28;20174;-69
2023/06/15 05:06:06;;;;;;;15.30;8.18;;;17.80;99.90;;;;;;5011506;28;20556;-67
2023/06/15 05:08:35;;;;;;;18.33;7.32;;;17.90;99.90;;;;;;5006078;28;20179;-68
2023/06/15 05:11:01;;;;;;;16.40;8.52;;;17.90;99.90;;;;;;5011392;28;20224;-69
2023/06/15 05:13:27;;;;;;;23.60;7.82;;;18.00;99.90;;;;;;5010381;28;20163;-68
2023/06/15 05:15:53;;;;;;;12.25;7.85;;;18.00;99.90;;;;;;4991849;28;20218;-68
2023/06/15 05:18:19;;;;;;;18.27;8.82;;;18.10;99.90;;;;;;4991874;28;20176;-65
2023/06/15 05:20:45;;;;;;;16.20;7.75;;;18.20;99.90;;;;;;4991795;28;20186;-65
2023/06/15 05:23:11;;;;;;;24.38;8.27;;;18.20;99.90;;;;;;4990517;28;20524;-64
2023/06/15 05:25:37;;;;;;;15.45;8.38;;;18.20;99.90;;;;;;5011449;28;20306;-66
2023/06/15 05:28:02;;;;;;;14.60;8.65;;;18.20;99.90;;;;;;5011646;28;20634;-66
2023/06/15 05:30:29;;;;;;;17.58;8.52;;;18.20;99.90;;;;;;5011275;28;20174;-66
2023/06/15 05:32:54;;;;;;;17.52;7.65;;;18.20;99.90;;;;;;5011253;28;20167;-66
2023/06/15 05:35:20;;;;;;;15.48;7.97;;;18.20;99.90;;;;;;5011145;28;20256;-65
2023/06/15 05:37:45;;;;;;;13.23;7.43;;;18.30;99.90;;;;;;5011271;28;20175;-65
2023/06/15 05:40:11;;;;;;;20.85;7.97;;;18.30;99.90;;;;;;5011102;28;20648;-65
2023/06/15 05:42:37;;;;;;;13.30;7.68;;;18.20;99.90;;;;;;5010996;28;20581;-65
2023/06/15 05:45:03;;;;;;;18.55;8.25;;;18.10;99.90;;;;;;5011279;28;20194;-64
2023/06/15 05:47:29;;;;;;;22.42;8.35;;;18.20;99.90;;;;;;5011198;28;20213;-67
2023/06/15 05:49:54;;;;;;;16.08;8.15;;;18.20;99.90;;;;;;5011106;28;20663;-67
2023/06/15 05:52:20;;;;;;;17.27;8.25;;;18.20;99.90;;;;;;5010888;28;20719;-67
2023/06/15 05:54:46;;;;;;;13.65;7.53;;;18.30;99.90;;;;;;5011108;28;20211;-66
2023/06/15 05:57:12;;;;;;;16.42;8.60;;;18.30;99.90;;;;;;5011007;28;20663;-66
2023/06/15 05:59:38;;;;;;;13.55;8.23;;;18.30;99.90;;;;;;5010922;28;20178;-66
2023/06/15 06:02:04;;;;;;;12.02;7.50;;;18.50;99.90;;;;;;5010936;28;20633;-67
2023/06/15 06:04:30;;;;;;;12.77;7.25;;;18.60;99.90;;;;;;5016794;28;20257;-64
2023/06/15 06:06:55;;;;;;;16.08;7.20;;;18.60;99.90;;;;;;5016702;28;20394;-64
2023/06/15 06:09:21;;;;;;;10.88;7.32;;;18.60;99.90;;;;;;5015325;28;20184;-63
2023/06/15 06:11:49;;;;;;;11.77;6.68;;;18.70;99.90;;;;;;5022777;28;20185;-64
2023/06/15 06:14:15;;;;;;;13.85;7.40;;;18.80;99.90;;;;;;4999882;28;20171;-67
2023/06/15 06:16:42;;;;;;;15.85;6.78;;;18.80;99.90;;;;;;5010855;28;20653;-67
2023/06/15 06:19:08;;;;;;;21.50;7.50;;;18.90;99.90;;;;;;5011135;28;20171;-67
2023/06/15 06:21:33;;;;;;;12.10;6.88;;;19.00;99.90;;;;;;5014752;28;20302;-66
2023/06/15 06:23:59;;;;;;;20.38;6.57;;;19.10;99.90;;;;;;5014640;28;20163;-65
2023/06/15 06:26:25;;;;;;;12.27;6.93;;;19.20;99.90;;;;;;5014719;28;20637;-66
2023/06/15 06:28:54;;;;;;;10.15;7.03;;;19.30;99.90;;;;;;5014632;28;20305;-65
2023/06/15 06:31:20;;;;;;;12.77;7.20;;;19.30;99.90;;;;;;4994906;28;20182;-65
2023/06/15 06:33:46;;;;;;;19.02;7.30;;;19.30;99.90;;;;;;4994832;28;20175;-66
2023/06/15 06:36:11;;;;;;;14.57;7.25;;;19.40;99.90;;;;;;4994756;28;20308;-66
2023/06/15 06:38:37;;;;;;;11.98;6.75;;;19.40;99.90;;;;;;4994859;28;20175;-66
2023/06/15 06:41:03;;;;;;;12.38;7.32;;;19.50;99.90;;;;;;4994809;28;20267;-66
2023/06/15 06:43:28;;;;;;;12.88;6.95;;;19.70;99.90;;;;;;4995067;28;20175;-70
2023/06/15 06:45:54;;;;;;;11.15;7.07;;;19.70;99.90;;;;;;5004452;28;20636;-66
2023/06/15 06:48:20;;;;;;;11.80;6.70;;;19.90;99.90;;;;;;5014848;28;20185;-65
2023/06/15 06:50:46;;;;;;;16.83;6.97;;;20.00;99.90;;;;;;5029468;28;20776;-65
2023/06/15 06:53:12;;;;;;;13.45;6.78;;;19.90;99.90;;;;;;5016097;28;20189;-66
2023/06/15 06:55:38;;;;;;;17.95;7.57;;;19.90;99.90;;;;;;5014353;28;20549;-65
2023/06/15 06:58:05;;;;;;;13.88;6.50;;;19.90;99.90;;;;;;5013850;28;20675;-65
2023/06/15 07:00:31;;;;;;;16.70;6.95;;;20.00;99.90;;;;;;5009214;28;20186;-65
2023/06/15 07:02:57;;;;;;;18.30;7.20;;;19.90;99.90;;;;;;5026941;28;20212;-66
2023/06/15 07:05:23;;;;;;;14.68;6.68;;;19.90;99.90;;;;;;5018230;28;20272;-65
2023/06/15 07:07:49;;;;;;;13.40;6.22;;;20.10;99.90;;;;;;5013179;28;20183;-65
2023/06/15 07:10:15;;;;;;;16.73;6.50;;;20.30;99.90;;;;;;5013229;28;20210;-67
2023/06/15 07:12:40;;;;;;;10.90;6.05;;;20.40;99.90;;;;;;5033264;28;20178;-68
2023/06/15 07:15:07;;;;;;;13.15;6.22;;;20.60;99.90;;;;;;5033333;28;20217;-66
2023/06/15 07:17:32;;;;;;;15.70;6.47;;;20.60;99.90;;;;;;5033219;28;20430;-67
2023/06/15 07:19:58;;;;;;;11.27;6.07;;;20.60;99.90;;;;;;5015705;28;20589;-68
2023/06/15 07:22:24;;;;;;;14.52;6.35;;;20.70;99.90;;;;;;4991283;28;20178;-67
2023/06/15 07:24:52;;;;;;;10.75;5.75;;;20.80;99.90;;;;;;4993861;28;20187;-66
2023/06/15 07:27:19;;;;;;;13.15;5.72;;;20.90;99.90;;;;;;5010644;28;20210;-67
2023/06/15 07:29:45;;;;;;;20.50;6.45;;;20.90;99.90;;;;;;5013208;28;20182;-67
2023/06/15 07:32:10;;;;;;;13.52;5.97;;;20.90;99.90;;;;;;5008487;28;20522;-66
2023/06/15 07:34:36;;;;;;;19.73;6.03;;;20.90;99.90;;;;;;5013991;28;20201;-73
2023/06/15 07:37:02;;;;;;;10.38;5.82;;;21.00;99.90;;;;;;5013318;28;20186;-67
2023/06/15 07:39:28;;;;;;;8.05;5.82;;;21.10;99.90;;;;;;5013201;28;20173;-68
2023/06/15 07:41:54;;;;;;;11.93;5.65;;;21.20;99.90;;;;;;5012976;28;20175;-68
2023/06/15 07:44:19;;;;;;;12.75;6.00;;;21.30;99.90;;;;;;5012292;28;20802;-67
2023/06/15 07:46:46;;;;;;;13.75;6.38;;;21.40;99.90;;;;;;5012737;28;20174;-67
2023/06/15 07:49:12;;;;;;;9.80;6.05;;;21.00;99.90;;;;;;5023837;28;20188;-66
2023/06/15 07:51:37;;;;;;;11.07;5.75;;;21.10;99.90;;;;;;5032593;28;20225;-67
2023/06/15 07:54:03;;;;;;;12.20;5.97;;;21.30;99.90;;;;;;5022322;28;20538;-67
2023/06/15 07:56:28;;;;;;;27.75;5.28;;;21.40;99.90;;;;;;5012637;28;20225;-67
2023/06/15 07:58:54;;;;;;;21.90;5.50;;;21.50;99.90;;;;;;5012856;28;20170;-68
2023/06/15 08:01:20;;;;;;;19.85;5.70;;;21.60;99.90;;;;;;5013000;28;20675;-67
2023/06/15 08:03:46;;;;;;;9.88;4.65;;;21.50;99.90;;;;;;5013383;28;20676;-70
2023/06/15 08:06:12;;;;;;;14.52;5.07;;;21.60;99.90;;;;;;5028770;28;20706;-68
2023/06/15 08:08:37;;;;;;;7.35;4.38;;;21.50;99.90;;;;;;5008899;28;20641;-67
2023/06/15 08:11:06;;;;;;;16.63;6.07;;;21.70;99.90;;;;;;5032544;28;20178;-68
2023/06/15 08:13:32;;;;;;;12.98;5.20;;;21.80;99.90;;;;;;5032245;28;20759;-67
2023/06/15 08:15:59;;;;;;;12.90;4.88;;;22.00;99.90;;;;;;5032285;28;20226;-69
2023/06/15 08:18:26;;;;;;;11.27;5.03;;;22.10;99.90;;;;;;5032477;28;20174;-64
2023/06/15 08:20:52;;;;;;;10.15;4.47;;;22.20;99.90;;;;;;5032170;28;20181;-66
2023/06/15 08:23:17;;;;;;;10.13;4.60;;;22.30;99.90;;;;;;5014014;28;20233;-66
2023/06/15 08:25:43;;;;;;;7.93;4.30;;;22.30;99.90;;;;;;5001421;28;20186;-65
2023/06/15 08:28:09;;;;;;;12.32;5.00;;;22.50;99.90;;;;;;5027721;28;20377;-65
2023/06/15 08:30:35;;;;;;;11.45;4.72;;;22.70;99.90;;;;;;5020499;28;20265;-66
2023/06/15 08:33:00;;;;;;;12.60;4.45;;;22.70;99.90;;;;;;5029246;28;20531;-66
2023/06/15 08:35:26;;;;;;;11.82;4.25;;;22.70;99.90;;;;;;5031747;28;20205;-66
2023/06/15 08:37:52;;;;;;;15.48;4.90;;;22.90;99.90;;;;;;5013892;28;20173;-66
2023/06/15 08:40:19;;;;;;;10.70;4.55;;;23.10;99.90;;;;;;5030057;28;20173;-65
2023/06/15 08:42:45;;;;;;;19.17;4.43;;;23.10;99.90;;;;;;5025667;28;20182;-66
2023/06/15 08:45:12;;;;;;;7.55;4.07;;;23.30;99.90;;;;;;5000932;28;20179;-66
2023/06/15 08:47:39;;;;;;;9.70;3.58;;;23.20;99.90;;;;;;5012070;28;20257;-66
2023/06/15 08:50:06;;;;;;;8.18;3.30;;;23.20;99.90;;;;;;5012280;28;20179;-65
2023/06/15 08:52:33;;;;;;;9.35;3.50;;;23.30;99.90;;;;;;5022255;28;20677;-65
2023/06/15 08:55:01;;;;;;;13.43;3.83;;;23.20;99.90;;;;;;5011767;28;20214;-66
2023/06/15 08:57:27;;;;;;;12.82;3.80;;;23.40;99.90;;;;;;5011392;28;20159;-65
2023/06/15 08:59:53;;;;;;;8.73;4.18;;;23.50;99.90;;;;;;5011734;28;20656;-66
2023/06/15 09:02:24;;;;;;;8.63;3.90;;;23.60;99.90;;;;;;5012499;28;20198;-66
2023/06/15 09:04:51;;;;;;;7.03;3.35;;;23.60;99.90;;;;;;5011733;28;20288;-66
2023/06/15 09:07:20;;;;;;;11.23;3.50;;;23.80;99.90;;;;;;5011725;28;20174;-66
2023/06/15 09:10:12;;;;;;;7.53;3.63;;;24.20;99.90;;;;;;5012086;28;20198;-66
2023/06/15 09:12:43;;;;;;;8.95;4.35;;;24.20;99.90;;;;;;5011507;28;20166;-66
2023/06/15 09:15:09;;;;;;;8.50;3.10;;;24.00;99.90;;;;;;5011534;28;20202;-66
2023/06/15 09:17:38;;;;;;;12.82;4.00;;;24.20;99.90;;;;;;5011471;28;20245;-66
2023/06/15 09:20:05;;;;;;;7.57;3.28;;;24.00;99.90;;;;;;5011359;28;20201;-65
2023/06/15 09:22:31;;;;;;;13.77;3.55;;;24.10;99.90;;;;;;5004976;28;20179;-65
2023/06/15 09:24:57;;;;;;;6.78;3.50;;;24.40;99.90;;;;;;5014015;28;20673;-66
2023/06/15 09:27:23;;;;;;;10.63;3.67;;;24.80;99.90;;;;;;5011040;28;20263;-66
2023/06/15 09:30:03;;;;;;;6.50;3.30;;;24.70;99.90;;;;;;5011294;28;20201;-66
2023/06/15 09:32:30;;;;;;;5.40;2.95;;;24.90;99.90;;;;;;5018747;28;20666;-66
2023/06/15 09:34:59;;;;;;;7.75;3.47;;;25.40;99.90;;;;;;5017969;28;20206;-67
2023/06/15 09:37:27;;;;;;;13.02;3.90;;;25.60;99.90;;;;;;5022355;28;20174;-66
2023/06/15 09:39:53;;;;;;;6.60;3.20;;;25.30;99.90;;;;;;5027046;28;20657;-66
2023/06/15 09:42:26;;;;;;;10.93;3.10;;;25.40;98.90;;;;;;5011513;28;20656;-66
2023/06/15 09:44:59;;;;;;;6.90;2.63;;;25.50;89.90;;;;;;5012092;28;20174;-66
2023/06/15 09:47:31;;;;;;;4.93;2.80;;;26.00;74.30;;;;;;5011029;28;20594;-66
2023/06/15 09:49:58;;;;;;;4.68;2.72;;;26.10;36.70;;;;;;5011315;28;20175;-66
2023/06/15 09:52:24;;;;;;;10.88;3.75;;;25.90;49.20;;;;;;5010282;28;20253;-65
2023/06/15 09:54:54;;;;;;;9.90;2.85;;;25.80;46.10;;;;;;5014297;28;20692;-65
2023/06/15 09:57:20;;;;;;;5.18;2.85;;;26.00;35.50;;;;;;5016412;28;20636;-65
2023/06/15 09:59:46;;;;;;;8.35;3.15;;;26.50;26.50;;;;;;5034693;28;20170;-65
2023/06/15 10:02:15;;;;;;;7.47;3.40;;;26.70;12.90;;;;;;5034705;28;20184;-65
2023/06/15 10:04:42;;;;;;;9.20;3.30;;;27.00;1.00;;;;;;5034657;28;20172;-65
2023/06/15 10:07:12;;;;;;;10.35;3.72;;;26.90;1.00;;;;;;5034552;28;20268;-65
2023/06/15 10:09:44;;;;;;;10.80;3.67;;;27.10;1.00;;;;;;5034667;28;20177;-66
2023/06/15 10:12:14;;;;;;;16.25;4.22;;;27.70;1.00;;;;;;5034474;28;20181;-66
2023/06/15 10:15:09;;;;;;;11.65;3.75;;;27.40;1.00;;;;;;5034407;28;20221;-64
2023/06/15 10:17:35;;;;;;;11.68;3.40;;;27.10;1.00;;;;;;5024147;28;20175;-64
2023/06/15 10:20:09;;;;;;;8.25;3.70;;;27.40;1.00;;;;;;5021305;28;20169;-64
2023/06/15 10:22:56;;;;;;;7.25;3.25;;;27.80;1.00;;;;;;5020736;28;20180;-65
2023/06/15 10:25:23;;;;;;;7.97;3.60;;;27.30;1.00;;;;;;5016479;28;20178;-66
2023/06/15 10:27:49;;;;;;;7.05;3.30;;;27.60;1.00;;;;;;5025147;28;20174;-66
2023/06/15 10:30:34;;;;;;;10.20;3.65;;;27.80;1.00;;;;;;5026137;28;20301;-65
2023/06/15 10:33:21;;;;;;;4.25;2.95;;;28.50;1.00;;;;;;5019687;28;20175;-65
2023/06/15 10:36:03;;;;;;;6.18;3.45;;;28.50;1.00;;;;;;5022314;28;20673;-65
2023/06/15 10:38:52;;;;;;;7.05;3.58;;;28.10;1.00;;;;;;5028770;28;20189;-66
2023/06/15 10:41:18;;;;;;;7.57;3.70;;;28.50;1.00;;;;;;5026245;28;20185;-65
2023/06/15 10:44:01;;;;;;;7.10;3.85;;;28.70;1.00;;;;;;5022497;28;20178;-66
2023/06/15 10:46:32;;;;;;;5.72;3.80;;;28.40;1.00;;;;;;5020942;28;20173;-65
2023/06/15 10:49:09;;;;;;;8.70;4.00;;;28.60;1.00;;;;;;5023386;28;20181;-66
2023/06/15 10:51:38;;;;;;;4.93;3.58;;;29.10;1.00;;;;;;5023290;28;20225;-65
2023/06/15 10:54:05;;;;;;;9.40;4.05;;;29.50;1.00;;;;;;5023093;28;20193;-65
2023/06/15 10:56:31;;;;;;;7.82;3.63;;;29.60;1.00;;;;;;5021142;28;20669;-66
2023/06/15 10:58:58;;;;;;;8.38;3.67;;;30.00;1.00;;;;;;5022957;28;20171;-66
2023/06/15 11:01:30;;;;;;;5.93;3.60;;;29.80;1.00;;;;;;5025221;28;20664;-66
2023/06/15 11:03:57;;;;;;;7.78;3.60;;;29.50;1.00;;;;;;5023298;28;20171;-66
2023/06/15 11:06:36;;;;;;;8.57;3.72;;;30.10;1.00;;;;;;5017348;28;20664;-66
2023/06/15 11:09:12;;;;;;;7.85;4.03;;;29.90;1.00;;;;;;5022917;28;20206;-66
2023/06/15 11:11:39;;;;;;;8.75;4.13;;;29.50;1.00;;;;;;5004929;28;20174;-65
2023/06/15 11:14:07;;;;;;;5.38;3.65;;;29.80;1.00;;;;;;5022435;28;20206;-64
2023/06/15 11:16:37;;;;;;;6.40;3.80;;;29.60;1.00;;;;;;5021521;28;20244;-66
2023/06/15 11:19:11;;;;;;;7.53;4.15;;;30.40;1.00;;;;;;5024366;28;20178;-64
2023/06/15 11:21:40;;;;;;;6.82;4.00;;;30.80;1.00;;;;;;5021976;28;20645;-65
2023/06/15 11:24:06;;;;;;;7.47;4.00;;;30.90;1.00;;;;;;5025705;28;20269;-65
2023/06/15 11:26:33;;;;;;;12.70;4.10;;;30.10;1.00;;;;;;5022822;28;20181;-65
2023/06/15 11:29:01;;;;;;;6.57;3.60;;;30.70;1.00;;;;;;5019613;28;20256;-65
2023/06/15 11:31:30;;;;;;;7.70;4.03;;;30.90;1.00;;;;;;5028185;28;20194;-66
2023/06/15 11:33:56;;;;;;;6.15;3.70;;;30.50;1.00;;;;;;5015892;28;20213;-67
2023/06/15 11:36:22;;;;;;;5.78;3.70;;;31.00;1.00;;;;;;5002896;28;20762;-66
2023/06/15 11:38:47;;;;;;;12.93;3.83;;;31.70;1.00;;;;;;5018357;28;20182;-66
2023/06/15 11:41:13;;;;;;;7.15;3.80;;;31.80;1.00;;;;;;5028147;28;20193;-66
2023/06/15 11:43:48;;;;;;;9.00;3.67;;;32.30;1.00;;;;;;5026629;28;20182;-66
2023/06/15 11:46:16;;;;;;;5.07;4.00;;;32.00;1.00;;;;;;4997746;28;20178;-66
2023/06/15 11:48:43;;;;;;;11.27;3.65;;;32.10;1.00;;;;;;5007169;28;20171;-66
2023/06/15 11:51:13;;;;;;;6.97;3.95;;;32.50;1.00;;;;;;5013324;28;20221;-65
2023/06/15 11:53:40;;;;;;;8.30;3.72;;;33.00;1.00;;;;;;5012771;28;20243;-65
2023/06/15 11:56:12;;;;;;;7.97;4.15;;;32.80;1.00;;;;;;5012770;28;20252;-64
2023/06/15 11:58:39;;;;;;;9.13;4.25;;;32.40;1.00;;;;;;5017948;28;20202;-65
2023/06/15 12:01:05;;;;;;;14.73;4.32;;;32.50;1.00;;;;;;5016781;28;20604;-65
2023/06/15 12:03:40;;;;;;;8.65;3.80;;;33.10;1.00;;;;;;5012880;28;20253;-65
2023/06/15 12:06:06;;;;;;;8.38;3.85;;;32.20;1.00;;;;;;5013511;28;20189;-65
2023/06/15 12:08:33;;;;;;;9.50;3.70;;;32.70;1.00;;;;;;5012640;28;20171;-65
2023/06/15 12:10:59;;;;;;;7.53;4.13;;;33.20;1.00;;;;;;5012669;28;20203;-65
2023/06/15 12:13:25;;;;;;;15.00;4.68;;;33.30;1.00;;;;;;5013468;28;20289;-65
2023/06/15 12:15:52;;;;;;;7.65;3.70;;;33.40;1.00;;;;;;5020098;28;20259;-65
2023/06/15 12:18:19;;;;;;;9.00;3.70;;;33.60;1.00;;;;;;5031107;28;20252;-65
2023/06/15 12:20:46;;;;;;;6.60;4.10;;;33.40;1.00;;;;;;5032227;28;20178;-65
2023/06/15 12:23:33;;;;;;;12.10;3.90;;;33.40;1.00;;;;;;5032044;28;20170;-66
2023/06/15 12:26:00;;;;;;;6.25;3.75;;;31.90;1.00;;;;;;5031960;28;20162;-65
2023/06/15 12:28:26;;;;;;;8.98;4.05;;;32.10;1.00;;;;;;4999158;28;20650;-65
2023/06/15 12:30:58;;;;;;;11.27;4.47;;;32.80;1.00;;;;;;5012265;28;20178;-65
2023/06/15 12:33:34;;;;;;;5.68;3.85;;;32.50;1.00;;;;;;4984531;28;20240;-65
2023/06/15 12:36:01;;;;;;;44.45;6.57;;;33.10;1.00;;;;;;4992453;28;20213;-65
2023/06/15 12:38:29;;;;;;;8.07;3.90;;;33.50;1.00;;;;;;5003260;28;20240;-65
2023/06/15 12:40:56;;;;;;;24.52;4.57;;;34.10;1.00;;;;;;5011903;28;20170;-65
2023/06/15 12:43:25;;;;;;;17.27;4.80;;;34.40;1.00;;;;;;5012028;28;20167;-65